KSDF/SDF METAR and TAF weather

Enter ICAO airport designator
Station Type Date Time Source
KSDF METAR 2020/11/28 19:56 UTC NOAA

KSDF 281956Z 15003KT 10SM CLR 10/M03 A3020 RMK AO2 SLP227 T01001028


Station Type Date Time Source
KSDF Decoded METAR 2020/11/28 19:56 UTC NOAA

STANDIFORD FIELD, KY, United States (KSDF) 38-11N 085-44W 146M
Nov 28, 2020 - 02:56 PM EST / 2020.11.28 1956 UTC
Wind: from the SSE (150 degrees) at 3 MPH (3 KT):0
Visibility: 10 mile(s):0
Sky conditions: clear
Temperature: 50.0 F (10.0 C)
Dew Point: 27.0 F (-2.8 C)
Relative Humidity: 40%
Pressure (altimeter): 30.2 in. Hg (1022 hPa)
ob: KSDF 281956Z 15003KT 10SM CLR 10/M03 A3020 RMK AO2 SLP227 T01001028
cycle: 20

Station Type Date Time Source
KSDF TAF 2020/11/28 18:22 UTC NOAA

TAF KSDF 281720Z 2818/2924 34005KT P6SM SKC
FM282300 VRB03KT P6SM SKC
FM291600 14004KT P6SM SCT150
FM292200 VRB03KT P6SM BKN100

Example: see airport list